Time;durP1;ratioP1;P1;durP2;ratioP2;P2;SDS_P1;SDS_P2;PMS_P1;PMS_P2;Temp;Humidity;BMP_temperature;BMP_pressure;BME280_temperature;BME280_humidity;BME280_pressure;Samples;Min_cycle;Max_cycle;Signal;HPM_P1;HPM_P2
2024/01/08 00:00:26;;;;;;;1.10;0.90;;;15.50;41.70;;;;;;4879709;27;45385;-51
2024/01/08 00:02:53;;;;;;;1.13;0.80;;;15.50;41.60;;;;;;4887959;27;45654;-51
2024/01/08 00:05:39;;;;;;;1.33;0.90;;;15.50;41.80;;;;;;4877764;27;45760;-51
2024/01/08 00:08:25;;;;;;;3.03;0.70;;;15.50;41.40;;;;;;4893022;27;46256;-51
2024/01/08 00:10:54;;;;;;;1.10;0.98;;;15.50;41.10;;;;;;4888533;27;45857;-51
2024/01/08 00:13:34;;;;;;;1.10;0.70;;;15.50;41.20;;;;;;4896949;27;45569;-51
2024/01/08 00:16:14;;;;;;;1.60;0.80;;;15.50;40.80;;;;;;4905758;27;46277;-51
2024/01/08 00:18:53;;;;;;;1.85;0.75;;;15.50;40.90;;;;;;4898011;27;45328;-51
2024/01/08 00:21:20;;;;;;;0.98;0.80;;;15.50;40.80;;;;;;4892260;27;45353;-51
2024/01/08 00:24:03;;;;;;;0.60;0.60;;;15.50;40.80;;;;;;4898437;27;45707;-51
2024/01/08 00:26:32;;;;;;;0.93;0.70;;;15.50;40.70;;;;;;4899931;27;46439;-51
2024/01/08 00:31:39;;;;;;;1.27;0.90;;;15.40;41.70;;;;;;4871826;27;45495;-51
2024/01/08 00:34:15;;;;;;;0.73;0.70;;;15.50;40.30;;;;;;4894185;27;45477;-51
2024/01/08 00:36:43;;;;;;;0.85;0.70;;;15.50;40.10;;;;;;4916286;27;45557;-51
2024/01/08 00:39:10;;;;;;;1.13;0.70;;;15.50;40.10;;;;;;4898443;27;45466;-51
2024/01/08 00:48:25;;;;;;;2.28;1.15;;;15.50;39.40;;;;;;4824219;27;45500;-51
2024/01/08 00:50:52;;;;;;;1.17;0.73;;;15.50;39.90;;;;;;4879837;27;45439;-51
2024/01/08 00:53:20;;;;;;;0.88;0.85;;;15.50;39.80;;;;;;4879598;27;45164;-51
2024/01/08 00:55:46;;;;;;;0.80;0.70;;;15.50;39.60;;;;;;4910663;27;45569;-52
2024/01/08 00:58:24;;;;;;;0.93;0.70;;;15.50;39.60;;;;;;4881869;27;45892;-51
2024/01/08 01:01:28;;;;;;;0.65;0.60;;;15.50;39.10;;;;;;4906290;27;45631;-51
2024/01/08 01:04:17;;;;;;;0.95;0.60;;;15.50;38.80;;;;;;4893207;27;45257;-51
2024/01/08 01:07:02;;;;;;;1.33;0.70;;;15.50;38.80;;;;;;4895842;27;45505;-51
2024/01/08 01:09:59;;;;;;;1.02;0.70;;;15.50;39.00;;;;;;4907898;27;46568;-51
2024/01/08 01:12:26;;;;;;;0.82;0.60;;;15.50;38.80;;;;;;4875011;27;45879;-51
2024/01/08 01:15:23;;;;;;;1.17;0.90;;;15.40;39.10;;;;;;4915949;27;45304;-51
2024/01/08 01:18:04;;;;;;;0.95;0.73;;;15.50;38.60;;;;;;4885245;27;45408;-51
2024/01/08 01:20:32;;;;;;;1.85;1.10;;;15.50;38.70;;;;;;4889398;27;46529;-51
2024/01/08 01:22:59;;;;;;;1.67;1.02;;;15.50;39.20;;;;;;4877213;27;45115;-51
2024/01/08 01:25:47;;;;;;;2.08;0.98;;;15.50;39.30;;;;;;4895593;27;45503;-51
2024/01/08 01:28:26;;;;;;;3.30;1.00;;;15.50;38.80;;;;;;4891625;27;45568;-51
2024/01/08 01:31:16;;;;;;;1.60;0.88;;;15.50;39.00;;;;;;4888076;27;45416;-51
2024/01/08 01:33:51;;;;;;;1.63;1.10;;;15.50;38.60;;;;;;4865679;27;45118;-51
2024/01/08 01:36:17;;;;;;;1.67;1.00;;;15.50;38.80;;;;;;4879138;27;45126;-52
2024/01/08 01:39:06;;;;;;;1.60;1.10;;;15.40;39.10;;;;;;4898743;27;45416;-51
2024/01/08 01:41:54;;;;;;;3.30;1.45;;;15.40;37.40;;;;;;4913503;27;46082;-52
2024/01/08 01:44:33;;;;;;;2.28;1.00;;;15.30;37.00;;;;;;4892515;27;45472;-51
2024/01/08 01:47:32;;;;;;;2.10;1.17;;;15.30;37.40;;;;;;4894402;27;45437;-51
2024/01/08 01:50:19;;;;;;;1.38;1.10;;;15.30;37.50;;;;;;4921137;27;45368;-52
2024/01/08 01:53:00;;;;;;;1.70;1.25;;;15.20;37.60;;;;;;4888518;27;46249;-51
2024/01/08 01:55:37;;;;;;;1.95;1.50;;;15.20;37.00;;;;;;4867293;27;45333;-51
2024/01/08 01:58:19;;;;;;;2.53;1.48;;;15.20;37.50;;;;;;4882004;27;45236;-52
2024/01/08 02:00:58;;;;;;;2.20;1.30;;;15.20;36.70;;;;;;4897992;27;45383;-52
2024/01/08 02:03:47;;;;;;;2.10;1.38;;;15.20;38.40;;;;;;4893390;27;46831;-51
2024/01/08 02:07:15;;;;;;;1.77;1.30;;;15.20;38.00;;;;;;4893371;27;45399;-51
2024/01/08 02:09:47;;;;;;;1.60;1.27;;;15.20;37.70;;;;;;4885313;27;45250;-52
2024/01/08 02:12:33;;;;;;;1.98;1.40;;;15.10;37.70;;;;;;4887849;27;45548;-51
2024/01/08 02:15:02;;;;;;;1.88;1.40;;;15.20;37.70;;;;;;4888560;27;45921;-51
2024/01/08 02:17:29;;;;;;;1.40;1.20;;;15.10;37.10;;;;;;4876200;27;45252;-51
2024/01/08 02:20:09;;;;;;;2.45;1.70;;;15.10;37.40;;;;;;4889467;27;45525;-51
2024/01/08 02:22:46;;;;;;;2.65;1.75;;;15.10;37.00;;;;;;4895917;27;45601;-52
2024/01/08 02:25:14;;;;;;;1.77;1.20;;;15.10;37.00;;;;;;4868247;27;45833;-52
2024/01/08 02:28:07;;;;;;;2.22;1.77;;;15.10;37.10;;;;;;4859342;27;45416;-51
2024/01/08 02:30:33;;;;;;;2.03;1.52;;;15.00;36.70;;;;;;4889838;27;45539;-51
2024/01/08 02:33:00;;;;;;;2.63;1.52;;;15.00;37.10;;;;;;4873651;27;45478;-51
2024/01/08 02:35:36;;;;;;;2.20;1.50;;;15.00;36.90;;;;;;4895366;27;46135;-51
2024/01/08 02:38:09;;;;;;;2.15;1.67;;;15.00;36.50;;;;;;4877406;27;45520;-51
2024/01/08 02:40:50;;;;;;;2.78;1.60;;;15.00;36.40;;;;;;4876340;27;45264;-51
2024/01/08 02:43:43;;;;;;;2.83;1.60;;;15.00;36.20;;;;;;4872447;27;45346;-51
2024/01/08 02:46:20;;;;;;;2.05;1.10;;;15.00;36.10;;;;;;4882916;27;45259;-52
2024/01/08 02:48:58;;;;;;;1.90;1.35;;;15.00;36.30;;;;;;4899222;27;45306;-51
2024/01/08 02:51:31;;;;;;;1.90;1.40;;;15.00;36.20;;;;;;4878087;27;45484;-51
2024/01/08 02:57:43;;;;;;;3.47;1.60;;;15.00;36.20;;;;;;4824662;27;45815;-51
2024/01/08 03:03:09;;;;;;;2.42;1.58;;;14.90;36.30;;;;;;4863364;27;45524;-51
2024/01/08 03:06:00;;;;;;;1.83;1.42;;;14.90;35.80;;;;;;4894716;27;45463;-51
2024/01/08 03:08:55;;;;;;;2.70;1.70;;;14.90;35.90;;;;;;4893174;27;47170;-51
2024/01/08 03:11:27;;;;;;;2.33;1.70;;;14.90;35.90;;;;;;4888898;27;45305;-51
2024/01/08 03:14:19;;;;;;;2.30;1.48;;;14.90;36.10;;;;;;4878406;27;46179;-51
2024/01/08 03:17:10;;;;;;;1.67;1.35;;;14.90;36.20;;;;;;4889111;27;45402;-51
2024/01/08 03:19:37;;;;;;;3.72;1.73;;;14.80;35.80;;;;;;4874824;27;46210;-52
2024/01/08 03:22:08;;;;;;;2.63;1.50;;;14.90;36.00;;;;;;4905027;27;45299;-51
2024/01/08 03:25:05;;;;;;;2.35;1.60;;;14.90;35.80;;;;;;4882431;27;45609;-51
2024/01/08 03:27:34;;;;;;;1.60;1.48;;;14.90;35.70;;;;;;4882148;27;45465;-52
2024/01/08 03:30:12;;;;;;;3.15;1.50;;;14.90;36.10;;;;;;4862979;27;45913;-51
2024/01/08 03:32:39;;;;;;;3.05;1.80;;;14.90;35.60;;;;;;4871474;27;45371;-51
2024/01/08 03:35:06;;;;;;;1.77;1.45;;;14.90;35.70;;;;;;4888310;27;45602;-51
2024/01/08 03:37:33;;;;;;;2.05;1.60;;;14.90;35.80;;;;;;4872723;27;45475;-52
2024/01/08 03:40:10;;;;;;;1.50;1.40;;;14.80;35.80;;;;;;4896265;27;46104;-51
2024/01/08 03:42:54;;;;;;;1.70;1.55;;;14.90;35.70;;;;;;4858873;27;45533;-51
2024/01/08 03:45:51;;;;;;;2.03;1.70;;;14.80;35.30;;;;;;4890410;27;45358;-51
2024/01/08 03:48:53;;;;;;;1.92;1.63;;;14.80;35.20;;;;;;4879189;27;45583;-51
2024/01/08 03:51:32;;;;;;;1.90;1.48;;;14.80;35.20;;;;;;4907003;27;47566;-51
2024/01/08 03:54:12;;;;;;;3.30;1.50;;;14.80;35.20;;;;;;4900401;27;45715;-52
2024/01/08 03:56:56;;;;;;;1.58;1.45;;;14.80;35.30;;;;;;4903404;27;45485;-51
2024/01/08 03:59:29;;;;;;;2.03;1.50;;;14.80;35.40;;;;;;4902601;27;45513;-51
2024/01/08 04:02:33;;;;;;;1.92;1.45;;;14.80;35.40;;;;;;4880931;27;45729;-51
2024/01/08 04:05:27;;;;;;;2.00;1.35;;;14.80;35.20;;;;;;4877781;27;45667;-51
2024/01/08 04:08:26;;;;;;;2.80;1.48;;;14.80;35.20;;;;;;4904713;27;45243;-51
2024/01/08 04:10:53;;;;;;;2.20;1.55;;;14.80;35.20;;;;;;4897339;27;45494;-52
2024/01/08 04:13:47;;;;;;;3.03;1.88;;;14.80;35.20;;;;;;4883553;27;45802;-51
2024/01/08 04:16:14;;;;;;;1.83;1.45;;;14.80;35.20;;;;;;4887099;27;45483;-51
2024/01/08 04:19:44;;;;;;;3.53;1.58;;;14.80;35.20;;;;;;4897915;27;45151;-51
2024/01/08 04:25:34;;;;;;;2.42;1.80;;;14.80;34.90;;;;;;4874404;27;45667;-52
2024/01/08 04:28:09;;;;;;;4.35;1.88;;;14.80;35.20;;;;;;4885794;27;45065;-52
2024/01/08 04:31:01;;;;;;;7.65;2.03;;;14.80;34.90;;;;;;4896318;27;45509;-51
2024/01/08 04:33:28;;;;;;;2.67;1.92;;;14.80;34.90;;;;;;4892256;27;45558;-52
2024/01/08 04:36:25;;;;;;;2.53;1.95;;;14.80;35.10;;;;;;4897817;27;45667;-51
2024/01/08 04:38:53;;;;;;;2.42;1.60;;;14.80;34.80;;;;;;4890998;27;45581;-51
2024/01/08 04:41:36;;;;;;;2.33;1.70;;;14.80;35.00;;;;;;4891249;27;45319;-51
2024/01/08 05:08:50;;;;;;;2.40;1.80;;;14.80;35.50;;;;;;5568317;22;12921076;-51
2024/01/08 05:11:18;;;;;;;2.25;1.70;;;14.80;35.30;;;;;;6006355;22;47713;-52
2024/01/08 05:14:11;;;;;;;2.30;1.70;;;14.80;35.30;;;;;;6007579;22;45078;-52
2024/01/08 05:16:38;;;;;;;2.78;2.00;;;14.70;34.90;;;;;;5985224;22;45242;-51
2024/01/08 05:19:31;;;;;;;2.88;1.90;;;14.70;34.90;;;;;;6012579;22;45334;-52
2024/01/08 05:22:14;;;;;;;2.42;1.77;;;14.70;34.60;;;;;;6019940;22;46971;-52
2024/01/08 05:24:54;;;;;;;3.35;2.20;;;14.70;35.80;;;;;;6000267;22;45254;-52
2024/01/08 05:27:20;;;;;;;2.28;1.73;;;14.70;34.40;;;;;;6013647;22;44814;-51
2024/01/08 05:29:49;;;;;;;2.53;1.83;;;14.70;34.70;;;;;;6011388;22;45464;-52
2024/01/08 05:32:27;;;;;;;3.17;1.92;;;14.70;34.80;;;;;;6000592;22;45887;-51
2024/01/08 05:35:16;;;;;;;2.95;1.90;;;14.60;34.80;;;;;;6038605;22;45062;-51
2024/01/08 05:37:58;;;;;;;3.67;1.90;;;14.70;34.60;;;;;;6016295;22;45223;-51
2024/01/08 05:40:55;;;;;;;2.78;1.70;;;14.70;34.90;;;;;;6027356;22;45246;-51
2024/01/08 05:43:37;;;;;;;2.78;1.73;;;14.70;35.00;;;;;;6013782;22;48989;-51
2024/01/08 05:46:45;;;;;;;2.50;1.70;;;14.80;35.20;;;;;;6003803;22;45087;-51
2024/01/08 05:49:13;;;;;;;3.38;1.75;;;14.80;35.20;;;;;;5992737;22;45395;-52
2024/01/08 05:52:05;;;;;;;2.58;1.70;;;14.80;35.40;;;;;;6023694;22;45336;-51
2024/01/08 05:54:56;;;;;;;1.95;1.60;;;14.80;35.60;;;;;;6000815;22;47198;-51
2024/01/08 05:57:33;;;;;;;3.15;1.95;;;14.90;35.70;;;;;;5966660;22;45091;-51
2024/01/08 06:00:11;;;;;;;3.75;2.10;;;14.80;35.80;;;;;;5996492;22;45269;-52
2024/01/08 06:02:56;;;;;;;3.67;2.38;;;14.80;35.30;;;;;;5993221;22;45137;-51
2024/01/08 06:05:28;;;;;;;2.83;1.95;;;14.80;36.00;;;;;;5985570;22;46639;-51
2024/01/08 06:08:00;;;;;;;3.70;2.25;;;14.70;34.40;;;;;;6000958;22;44880;-51
2024/01/08 06:11:03;;;;;;;3.08;1.90;;;14.70;34.40;;;;;;6025759;22;45240;-51
2024/01/08 06:13:46;;;;;;;3.42;2.28;;;14.70;34.00;;;;;;5984086;22;45113;-51
2024/01/08 06:16:22;;;;;;;2.13;1.85;;;14.60;33.80;;;;;;5987774;22;45692;-51
2024/01/08 06:18:50;;;;;;;2.90;2.20;;;14.60;34.00;;;;;;5993466;22;45272;-52
2024/01/08 06:21:43;;;;;;;3.35;2.10;;;14.60;34.00;;;;;;5998098;22;45045;-51
2024/01/08 06:24:10;;;;;;;2.65;2.30;;;14.60;33.70;;;;;;6027128;22;45224;-52
2024/01/08 06:27:02;;;;;;;3.45;2.08;;;14.60;33.90;;;;;;6016428;22;45860;-51
2024/01/08 06:29:38;;;;;;;3.47;2.17;;;14.60;34.00;;;;;;6039290;22;45079;-52
2024/01/08 06:32:07;;;;;;;3.03;2.10;;;14.60;34.10;;;;;;6029915;22;44899;-51
2024/01/08 06:34:53;;;;;;;3.05;2.13;;;14.60;34.00;;;;;;5996087;22;45188;-52
2024/01/08 06:37:46;;;;;;;3.35;1.98;;;14.60;33.80;;;;;;5986873;22;46062;-51
2024/01/08 06:40:39;;;;;;;2.85;1.98;;;14.50;33.70;;;;;;6004166;22;45144;-52
2024/01/08 06:43:12;;;;;;;3.35;2.20;;;14.50;33.60;;;;;;5962278;22;45332;-51
2024/01/08 06:45:52;;;;;;;3.50;2.00;;;14.50;33.90;;;;;;5986496;22;45629;-51
2024/01/08 06:48:42;;;;;;;3.30;1.98;;;14.60;34.00;;;;;;6047699;22;45310;-51
2024/01/08 06:51:28;;;;;;;2.60;1.77;;;14.60;34.00;;;;;;6019133;22;45131;-51
2024/01/08 06:54:10;;;;;;;3.15;2.13;;;14.70;34.40;;;;;;6029424;22;45089;-51
2024/01/08 06:59:18;;;;;;;4.15;1.80;;;14.80;34.80;;;;;;5992307;22;45396;-52
2024/01/08 07:02:23;;;;;;;2.58;1.80;;;14.80;34.70;;;;;;6023603;22;45245;-52
2024/01/08 07:04:52;;;;;;;2.60;1.80;;;14.90;34.80;;;;;;6001761;22;45837;-51
2024/01/08 07:07:52;;;;;;;2.83;1.88;;;14.90;35.10;;;;;;6015097;22;45476;-51
2024/01/08 07:11:02;;;;;;;2.75;1.80;;;14.90;35.10;;;;;;6031967;22;47437;-51
2024/01/08 07:13:30;;;;;;;3.00;1.80;;;14.90;35.30;;;;;;6012681;22;45611;-52
2024/01/08 07:15:58;;;;;;;3.58;1.77;;;14.90;35.30;;;;;;6017222;22;45675;-51
2024/01/08 07:18:55;;;;;;;2.17;1.58;;;14.90;35.30;;;;;;6021690;22;45193;-51
2024/01/08 07:21:34;;;;;;;2.55;1.80;;;14.90;35.30;;;;;;5984493;22;46494;-51
2024/01/08 07:24:03;;;;;;;3.45;1.90;;;14.90;35.30;;;;;;6004490;22;45136;-52
2024/01/08 07:27:02;;;;;;;2.63;1.77;;;14.90;35.50;;;;;;5983544;22;45345;-51
2024/01/08 07:29:29;;;;;;;3.75;1.85;;;14.90;35.30;;;;;;5986859;22;45401;-51
2024/01/08 07:32:22;;;;;;;1.85;1.50;;;14.90;35.50;;;;;;6012950;22;46805;-51
2024/01/08 07:34:49;;;;;;;1.92;1.58;;;14.90;36.50;;;;;;5977857;22;45153;-51
2024/01/08 07:37:27;;;;;;;3.97;1.70;;;14.90;35.50;;;;;;6029230;22;45223;-51
2024/01/08 07:40:09;;;;;;;2.85;1.50;;;14.90;35.30;;;;;;5996874;22;45266;-51
2024/01/08 07:42:48;;;;;;;2.28;1.58;;;14.90;35.50;;;;;;6007163;22;45963;-51
2024/01/08 07:45:39;;;;;;;1.98;1.50;;;14.90;35.50;;;;;;5989407;22;45338;-52
2024/01/08 07:48:06;;;;;;;2.08;1.70;;;14.90;35.50;;;;;;6010925;22;45142;-51
2024/01/08 07:50:45;;;;;;;2.00;1.40;;;14.90;35.60;;;;;;5986522;22;45308;-51
2024/01/08 07:53:26;;;;;;;2.72;1.60;;;14.90;35.70;;;;;;5998171;22;46480;-51
2024/01/08 07:56:13;;;;;;;2.20;1.60;;;14.90;35.40;;;;;;5996532;22;45224;-51
2024/01/08 07:58:40;;;;;;;2.40;1.60;;;15.00;35.60;;;;;;6001017;22;44846;-51
2024/01/08 08:01:31;;;;;;;3.00;1.83;;;15.00;35.90;;;;;;6015494;22;45341;-51
2024/01/08 08:04:16;;;;;;;3.35;1.83;;;14.90;35.60;;;;;;6009482;22;47066;-52
2024/01/08 08:07:36;;;;;;;2.03;1.50;;;15.00;35.90;;;;;;6031287;22;44782;-51
2024/01/08 08:10:05;;;;;;;3.00;1.50;;;15.00;35.70;;;;;;6024413;22;45206;-52
2024/01/08 08:12:32;;;;;;;2.92;1.70;;;15.00;36.00;;;;;;5996937;22;45148;-52
2024/01/08 08:15:00;;;;;;;2.63;1.60;;;15.00;36.00;;;;;;6016055;22;46319;-51
2024/01/08 08:17:30;;;;;;;1.63;1.30;;;15.00;36.00;;;;;;5998210;22;45277;-51
2024/01/08 08:20:31;;;;;;;4.53;1.80;;;15.00;36.10;;;;;;5979451;22;45176;-52
2024/01/08 08:23:19;;;;;;;2.35;1.63;;;15.00;36.00;;;;;;6008599;22;45093;-51
2024/01/08 08:26:14;;;;;;;3.05;1.63;;;15.00;36.00;;;;;;5996240;22;46621;-51
2024/01/08 08:28:49;;;;;;;2.58;1.70;;;15.00;36.00;;;;;;5992588;22;45068;-51
2024/01/08 08:31:15;;;;;;;2.00;1.38;;;15.00;36.10;;;;;;5981685;22;45408;-51
2024/01/08 08:34:12;;;;;;;2.75;1.60;;;15.00;36.20;;;;;;6029084;22;45169;-51
2024/01/08 08:37:09;;;;;;;2.25;1.50;;;15.00;36.10;;;;;;6038109;22;45211;-51
2024/01/08 08:39:53;;;;;;;1.88;1.40;;;15.00;36.00;;;;;;6017169;22;44957;-51
2024/01/08 08:42:21;;;;;;;2.25;1.45;;;15.00;36.00;;;;;;6001650;22;45411;-51
2024/01/08 08:45:06;;;;;;;2.22;1.60;;;15.00;36.20;;;;;;6004942;22;45271;-52
2024/01/08 08:47:44;;;;;;;2.22;1.60;;;15.00;35.90;;;;;;5989174;22;47269;-52
2024/01/08 08:52:51;;;;;;;3.72;1.63;;;15.00;36.10;;;;;;5999903;22;45268;-51
2024/01/08 08:55:47;;;;;;;1.92;1.42;;;15.00;36.00;;;;;;5995447;22;45180;-51
2024/01/08 08:58:28;;;;;;;2.15;1.40;;;15.00;35.80;;;;;;5986092;22;46332;-51
2024/01/08 09:01:05;;;;;;;2.28;1.65;;;15.00;35.90;;;;;;5997104;22;45361;-52
2024/01/08 09:03:33;;;;;;;2.15;1.60;;;15.00;35.90;;;;;;6004839;22;45263;-52
2024/01/08 09:06:01;;;;;;;2.97;1.63;;;15.00;36.00;;;;;;5988569;22;45134;-51
2024/01/08 09:12:00;;;;;;;2.28;1.52;;;15.00;35.70;;;;;;5941407;22;45381;-52
2024/01/08 09:14:52;;;;;;;2.35;1.67;;;15.00;36.00;;;;;;6015027;22;45271;-51
2024/01/08 09:17:41;;;;;;;2.72;1.80;;;15.00;35.70;;;;;;5988210;22;45299;-52
2024/01/08 09:20:34;;;;;;;3.97;1.95;;;15.00;35.60;;;;;;6018662;22;45738;-52
2024/01/08 09:23:01;;;;;;;2.30;1.58;;;15.00;35.60;;;;;;5985138;22;45260;-52
2024/01/08 09:25:50;;;;;;;2.55;1.50;;;15.00;35.90;;;;;;6002140;22;45274;-52
2024/01/08 09:34:59;;;;;;;2.60;1.70;;;15.00;35.50;;;;;;6003451;22;45382;-51
2024/01/08 09:37:45;;;;;;;3.45;1.83;;;15.00;35.70;;;;;;6000200;22;45258;-51
2024/01/08 09:40:20;;;;;;;1.90;1.48;;;15.00;35.60;;;;;;5982831;22;45335;-52
2024/01/08 09:43:23;;;;;;;2.72;1.70;;;15.00;35.70;;;;;;6009147;22;45204;-51
2024/01/08 09:46:23;;;;;;;2.17;1.70;;;15.00;35.60;;;;;;6014063;22;45416;-51
2024/01/08 09:48:53;;;;;;;2.70;1.73;;;15.00;35.50;;;;;;6009698;22;45248;-51
2024/01/08 09:51:21;;;;;;;2.65;1.83;;;15.00;35.90;;;;;;5993399;22;45327;-52
2024/01/08 09:53:47;;;;;;;3.40;1.90;;;15.00;36.00;;;;;;6001675;22;46892;-51
2024/01/08 09:56:25;;;;;;;2.58;1.80;;;15.00;36.00;;;;;;5984067;22;45085;-51
2024/01/08 09:58:52;;;;;;;3.85;2.13;;;15.10;35.80;;;;;;5997559;22;45288;-52
2024/01/08 10:01:42;;;;;;;2.72;1.67;;;15.00;35.90;;;;;;6005960;22;45142;-51
2024/01/08 10:04:20;;;;;;;4.05;1.73;;;15.00;35.50;;;;;;5991281;22;45507;-52
2024/01/08 10:11:17;;;;;;;2.35;1.60;;;15.00;35.80;;;;;;5983953;22;45377;-51
2024/01/08 10:14:15;;;;;;;2.90;1.67;;;15.00;35.40;;;;;;5992731;22;45490;-51
2024/01/08 10:16:41;;;;;;;2.33;1.70;;;15.00;35.50;;;;;;6016680;22;47346;-51
2024/01/08 10:19:31;;;;;;;2.20;1.70;;;15.00;35.90;;;;;;5987730;22;45239;-51
2024/01/08 10:22:50;;;;;;;4.55;1.73;;;15.00;35.50;;;;;;5992779;22;45321;-52
2024/01/08 10:25:54;;;;;;;4.63;1.80;;;15.00;35.60;;;;;;6004170;22;45086;-51
2024/01/08 10:28:23;;;;;;;1.95;1.52;;;15.00;35.50;;;;;;6033083;22;47007;-51
2024/01/08 10:30:52;;;;;;;2.45;1.77;;;15.00;35.90;;;;;;6026300;22;45116;-52
2024/01/08 10:33:49;;;;;;;2.53;1.80;;;15.00;35.90;;;;;;6011141;22;45437;-51
2024/01/08 10:36:30;;;;;;;1.48;1.27;;;15.00;35.50;;;;;;5986281;22;45113;-51
2024/01/08 10:39:09;;;;;;;2.63;1.52;;;15.00;35.50;;;;;;5993271;22;47606;-51
2024/01/08 10:42:00;;;;;;;3.00;1.63;;;15.00;35.50;;;;;;5996716;22;45323;-51
2024/01/08 10:44:40;;;;;;;3.95;1.77;;;15.00;35.20;;;;;;5987091;22;45299;-52
2024/01/08 10:50:47;;;;;;;3.53;1.50;;;15.10;35.10;;;;;;5948649;22;45665;-51
2024/01/08 10:53:36;;;;;;;2.15;1.45;;;15.10;35.50;;;;;;6008391;22;45330;-51
2024/01/08 10:56:31;;;;;;;3.55;1.52;;;15.00;35.10;;;;;;6031209;22;45304;-51
2024/01/08 10:59:11;;;;;;;2.72;1.50;;;15.00;34.60;;;;;;5990733;22;45307;-52
2024/01/08 11:04:20;;;;;;;2.35;1.33;;;15.00;34.90;;;;;;5984124;22;45339;-52
2024/01/08 11:07:02;;;;;;;2.13;1.50;;;15.00;34.80;;;;;;6024559;22;45287;-51
2024/01/08 11:09:31;;;;;;;6.45;1.45;;;15.00;34.20;;;;;;6010341;22;45310;-52
2024/01/08 11:12:19;;;;;;;3.42;1.92;;;15.00;34.40;;;;;;6041751;22;45762;-51
2024/01/08 11:18:25;;;;;;;1.60;1.30;;;15.00;34.10;;;;;;5968551;22;45094;-51
2024/01/08 11:23:42;;;;;;;1.80;1.30;;;15.00;34.10;;;;;;6000207;22;45276;-51
2024/01/08 11:26:27;;;;;;;1.80;1.20;;;15.00;34.00;;;;;;5999091;22;45117;-51
2024/01/08 11:29:14;;;;;;;2.13;1.40;;;15.00;33.40;;;;;;6027390;22;45655;-51
2024/01/08 11:35:58;;;;;;;3.20;1.55;;;15.00;33.10;;;;;;5989481;22;45328;-52
2024/01/08 11:38:26;;;;;;;3.45;1.55;;;14.90;32.20;;;;;;5984250;22;45405;-52
2024/01/08 11:41:03;;;;;;;2.80;1.60;;;14.90;32.30;;;;;;6009673;22;45170;-52
2024/01/08 11:43:42;;;;;;;3.67;1.58;;;14.90;31.90;;;;;;5999069;22;45545;-51
2024/01/08 11:46:09;;;;;;;1.95;1.50;;;14.90;32.70;;;;;;5994215;22;45608;-51
2024/01/08 11:49:05;;;;;;;3.80;1.88;;;14.90;33.80;;;;;;6050127;22;45207;-52
2024/01/08 11:52:08;;;;;;;1.65;1.35;;;14.90;33.00;;;;;;6021054;22;45261;-51
2024/01/08 11:55:13;;;;;;;3.30;1.67;;;14.80;31.80;;;;;;5996343;22;45159;-52
2024/01/08 11:57:40;;;;;;;2.38;1.55;;;14.80;31.80;;;;;;6014233;22;46561;-52
2024/01/08 12:00:24;;;;;;;2.88;1.77;;;14.70;32.10;;;;;;6004298;22;45310;-52
2024/01/08 12:03:11;;;;;;;2.15;1.42;;;14.70;30.90;;;;;;6020560;22;45231;-52
2024/01/08 12:05:41;;;;;;;3.15;1.58;;;14.70;30.70;;;;;;6033045;22;45486;-52
2024/01/08 12:08:34;;;;;;;2.85;1.83;;;14.70;31.40;;;;;;5990513;22;46395;-52
2024/01/08 12:11:01;;;;;;;2.88;1.35;;;14.70;30.50;;;;;;6008595;22;45188;-52
2024/01/08 12:13:28;;;;;;;1.92;1.30;;;14.70;31.10;;;;;;5983713;22;45145;-52
2024/01/08 12:16:24;;;;;;;2.60;1.60;;;14.60;30.80;;;;;;5972041;22;45523;-51
2024/01/08 12:19:15;;;;;;;1.73;1.40;;;14.60;30.30;;;;;;6019425;22;45478;-52
2024/01/08 12:21:44;;;;;;;3.10;1.70;;;14.70;30.30;;;;;;6007164;22;45245;-52
2024/01/08 12:24:40;;;;;;;2.45;1.63;;;14.60;30.70;;;;;;6059467;22;45353;-51
2024/01/08 12:27:30;;;;;;;2.42;1.73;;;14.60;30.00;;;;;;5997356;22;45028;-52
2024/01/08 12:29:58;;;;;;;2.38;1.38;;;14.60;30.30;;;;;;6000985;22;47295;-52
2024/01/08 12:32:30;;;;;;;2.72;2.13;;;14.60;30.20;;;;;;5996995;22;45188;-52
2024/01/08 12:35:09;;;;;;;3.25;2.05;;;14.60;30.00;;;;;;6028428;22;45399;-52
2024/01/08 12:37:40;;;;;;;1.95;1.52;;;14.60;30.00;;;;;;5991008;22;45231;-52
2024/01/08 12:40:39;;;;;;;2.00;1.52;;;14.60;30.00;;;;;;5984714;22;46026;-52
2024/01/08 12:43:06;;;;;;;2.88;1.92;;;14.60;29.60;;;;;;6005166;22;45250;-52
2024/01/08 12:45:34;;;;;;;2.80;1.60;;;14.60;30.30;;;;;;5994382;22;45334;-52
2024/01/08 12:48:27;;;;;;;3.65;1.70;;;14.60;29.90;;;;;;5981596;22;45250;-52
2024/01/08 12:50:54;;;;;;;2.38;1.70;;;14.60;29.40;;;;;;6018891;22;45831;-52
2024/01/08 12:53:21;;;;;;;3.25;1.80;;;14.60;29.80;;;;;;6023239;22;45303;-52
2024/01/08 12:56:09;;;;;;;2.55;1.67;;;14.60;29.80;;;;;;6052099;22;45563;-52
2024/01/08 12:58:58;;;;;;;2.10;1.40;;;14.50;29.10;;;;;;6013073;22;45139;-52
2024/01/08 13:01:24;;;;;;;2.38;1.45;;;14.50;29.50;;;;;;6002630;22;45280;-52
2024/01/08 13:03:52;;;;;;;3.38;1.58;;;14.50;29.50;;;;;;6017420;22;45182;-52
2024/01/08 13:06:26;;;;;;;2.47;1.60;;;14.50;29.40;;;;;;5996715;22;45202;-52
2024/01/08 13:09:24;;;;;;;2.65;1.75;;;14.50;29.70;;;;;;6026631;22;45222;-52
2024/01/08 13:12:19;;;;;;;2.40;1.63;;;14.50;29.00;;;;;;6020743;22;46278;-52
2024/01/08 13:14:50;;;;;;;3.50;1.52;;;14.50;29.10;;;;;;5999685;22;45326;-52
2024/01/08 13:17:34;;;;;;;1.92;1.55;;;14.50;29.40;;;;;;6019671;22;45549;-52
2024/01/08 13:20:34;;;;;;;2.25;1.65;;;14.50;28.80;;;;;;6046283;22;45154;-52
2024/01/08 13:23:20;;;;;;;2.67;1.65;;;14.50;29.00;;;;;;6017920;22;47474;-52
2024/01/08 13:26:05;;;;;;;2.55;1.50;;;14.50;28.80;;;;;;6019876;22;45093;-52
2024/01/08 13:28:59;;;;;;;1.95;1.30;;;14.50;28.90;;;;;;6017899;22;44879;-51
2024/01/08 13:31:47;;;;;;;2.67;1.55;;;14.50;28.80;;;;;;6021471;22;44927;-51
2024/01/08 13:34:20;;;;;;;3.15;1.88;;;14.50;28.70;;;;;;6008187;22;45652;-52
2024/01/08 13:37:13;;;;;;;2.13;1.50;;;14.50;29.00;;;;;;6001700;22;45111;-52
2024/01/08 13:39:59;;;;;;;2.45;1.38;;;14.50;28.50;;;;;;5986361;22;45351;-51
2024/01/08 13:42:26;;;;;;;2.45;1.42;;;14.50;28.70;;;;;;6008079;22;45106;-52
2024/01/08 13:44:54;;;;;;;2.80;1.80;;;14.50;29.10;;;;;;5996450;22;46367;-52
2024/01/08 13:47:49;;;;;;;2.35;1.65;;;14.50;29.10;;;;;;6006799;22;45274;-52
2024/01/08 13:50:54;;;;;;;3.15;1.60;;;14.50;28.50;;;;;;5993759;22;45388;-52
2024/01/08 13:53:23;;;;;;;2.15;1.52;;;14.50;28.50;;;;;;6023009;22;44862;-52
2024/01/08 13:56:24;;;;;;;2.67;1.52;;;14.50;28.80;;;;;;5984294;22;45800;-51
2024/01/08 13:59:24;;;;;;;3.03;1.88;;;14.50;28.60;;;;;;6020144;22;45162;-52
2024/01/08 14:02:14;;;;;;;2.17;1.30;;;14.50;29.00;;;;;;6024085;22;45209;-52
2024/01/08 14:04:53;;;;;;;2.58;1.67;;;14.40;28.20;;;;;;6001109;22;45190;-52
2024/01/08 14:07:43;;;;;;;2.58;1.60;;;14.40;28.40;;;;;;6026146;22;46176;-52
2024/01/08 14:10:29;;;;;;;2.92;1.65;;;14.50;28.40;;;;;;6037087;22;45318;-52
2024/01/08 14:13:28;;;;;;;2.58;1.63;;;14.40;28.20;;;;;;5986557;22;45103;-52
2024/01/08 14:16:16;;;;;;;2.90;1.80;;;14.40;28.10;;;;;;6030124;22;45198;-52
2024/01/08 14:18:44;;;;;;;2.53;1.52;;;14.50;28.40;;;;;;5994210;22;45215;-52
2024/01/08 14:22:00;;;;;;;3.92;1.63;;;14.40;28.50;;;;;;6020433;22;45495;-51
2024/01/08 14:24:31;;;;;;;2.88;1.70;;;14.40;28.10;;;;;;6034257;22;45235;-51
2024/01/08 14:27:13;;;;;;;4.95;1.70;;;14.40;28.40;;;;;;6003429;22;45321;-51
2024/01/08 14:29:39;;;;;;;3.15;1.77;;;14.40;28.20;;;;;;6017326;22;46186;-51
2024/01/08 14:32:28;;;;;;;2.97;1.70;;;14.40;28.40;;;;;;6017276;22;45312;-51
2024/01/08 14:34:56;;;;;;;2.80;1.60;;;14.40;28.20;;;;;;5996044;22;44929;-52
2024/01/08 14:37:23;;;;;;;2.13;1.60;;;14.40;28.40;;;;;;5993071;22;45168;-52
2024/01/08 14:40:27;;;;;;;2.30;1.60;;;14.40;28.40;;;;;;5977081;22;45735;-51
2024/01/08 14:43:22;;;;;;;2.20;1.40;;;14.40;28.00;;;;;;5994074;22;45523;-51
2024/01/08 14:45:50;;;;;;;1.50;1.25;;;14.40;28.00;;;;;;5992629;22;45252;-51
2024/01/08 14:48:51;;;;;;;2.92;1.55;;;14.40;28.40;;;;;;6002807;22;45048;-52
2024/01/08 14:51:28;;;;;;;3.47;1.70;;;14.40;29.20;;;;;;6012412;22;46038;-51
2024/01/08 14:53:54;;;;;;;2.78;1.63;;;14.40;28.50;;;;;;5995725;22;45648;-51
2024/01/08 14:56:51;;;;;;;1.98;1.40;;;14.50;28.30;;;;;;6017573;22;45106;-51
2024/01/08 14:59:21;;;;;;;2.33;1.40;;;14.40;28.00;;;;;;5992222;22;45259;-52
2024/01/08 15:02:04;;;;;;;2.97;1.70;;;14.50;28.20;;;;;;6009394;22;46069;-52
2024/01/08 15:04:46;;;;;;;3.10;1.60;;;14.40;28.10;;;;;;6000851;22;44979;-51
2024/01/08 15:07:58;;;;;;;2.55;1.67;;;14.40;27.80;;;;;;5989039;22;45006;-51
2024/01/08 15:10:40;;;;;;;2.55;1.48;;;14.40;27.70;;;;;;6010690;22;45296;-51
2024/01/08 15:13:10;;;;;;;2.20;1.60;;;14.40;27.70;;;;;;5982643;22;46986;-51
2024/01/08 15:15:47;;;;;;;2.65;1.70;;;14.40;28.00;;;;;;5987817;22;45413;-51
2024/01/08 15:18:15;;;;;;;2.78;1.80;;;14.40;27.80;;;;;;6007293;22;45083;-52